Ana Sayfa
METAR-TAF:

METAR-TAF

Havaalanları :

Cidde, Suudi Arabistan

Enlem: 21-42N, Boylam: 039-11E, yükseklik: 15 m

Güncel hava durumu gözlemi

Rapor saat 23:00 UTC de 24 dakika önce yapıldı.
Rüzgar kuzey/kuzeybatıdan 3 kt
Sıcaklık 22°C
Nem 73%
Basınç 1013 hPa
Görüş mesafesi 10 km veya daha fazla
1500 m altında bulut yok ve kümülonimbus yok

METAR: OEJN 272300Z 33003KT CAVOK 22/17 Q1013 NOSIG

Saat: 02:24 (23:24 UTC)

Tahmin

Rapor saat 17:00 UTC de 6 saat ve 24 dakika önce yapıldı.
Ayın 27'si saat 18 UTC'den ayın 28'si saat 24 UTC'ye kadar geçerli Tahmin
Rüzgar kuzey/kuzeybatıdan 8 kt
Görüş mesafesi 10 km veya daha fazla
1500 m altında bulut yok ve kümülonimbus yok
Dönüşüyor
ayın 28'si saat 06 UTC'den ayın 28'si saat 08 UTC'ye kadar
Rüzgar batı/kuzeybatıdan 15 kt

TAF: OEJN 271700Z 2718/2824 33008KT CAVOK BECMG 2806/2808 29015KT

4.000'den fazla havaalanı için hava durumu gözlemleri ve tahminleri (METAR ve TAF raporları).

Kullanılabilir istasyonlar harita üzerinde sarı ve kırmızı noktalarla gösterilir.

İstasyonun adını görmek için fareyi noktanın üzerinde gezdirin.

Sonrasında hava gözlem ve tahminlerini görmek için tıklayın.

Haritayı değiştirmek için: yaklaştırmak için siyah artı işaretli yeşil düğmeye ve uzaklaştırmak için de eksi işaretli düğmeye hızla tıklayın; bitişik haritalar için yeşil okları kullanın.


METAR-TAF: